Terminal Aerodrome Forecast
Issued by NWS Sioux Falls, SD

Home | Current Version | Previous Version | Text Only | Print | Product List | Glossary On
Versions: 1 2 3 4 5 6 7 8 9 10 11 12 13 14 15 16 17 18 19
786
FTUS43 KFSD 192119 AAA
TAFHON
TAF AMD
KHON 192119Z 1921/2018 01012G22KT 1SM -SN BKN010 OVC025
     FM200500 35010G18KT 1SM -SN BKN008 OVC015=

USA.gov is the U.S. government's official web portal to all federal, state and local government web resources and services.